sensor_id;sensor_type;location;lat;lon;timestamp;pressure;altitude;pressure_sealevel;temperature;humidity
77235;BME280;66253;50.526;14.974;2023-07-13T00:00:58;98685.10;;;21.69;62.78
77235;BME280;66253;50.526;14.974;2023-07-13T00:03:27;98676.37;;;21.70;62.92
77235;BME280;66253;50.526;14.974;2023-07-13T00:06:01;98676.48;;;21.67;62.82
77235;BME280;66253;50.526;14.974;2023-07-13T00:08:31;98684.05;;;21.66;62.87
77235;BME280;66253;50.526;14.974;2023-07-13T00:10:59;98685.15;;;21.65;62.72
77235;BME280;66253;50.526;14.974;2023-07-13T00:13:28;98681.30;;;21.66;62.84
77235;BME280;66253;50.526;14.974;2023-07-13T00:15:56;98684.66;;;21.59;62.90
77235;BME280;66253;50.526;14.974;2023-07-13T00:18:25;98687.73;;;21.47;63.26
77235;BME280;66253;50.526;14.974;2023-07-13T00:20:53;98689.88;;;21.37;63.47
77235;BME280;66253;50.526;14.974;2023-07-13T00:23:22;98685.93;;;21.29;63.62
77235;BME280;66253;50.526;14.974;2023-07-13T00:25:50;98683.98;;;21.27;63.74
77235;BME280;66253;50.526;14.974;2023-07-13T00:28:18;98687.83;;;21.28;63.83
77235;BME280;66253;50.526;14.974;2023-07-13T00:30:46;98695.70;;;21.31;63.90
77235;BME280;66253;50.526;14.974;2023-07-13T00:33:15;98696.99;;;21.31;64.05
77235;BME280;66253;50.526;14.974;2023-07-13T00:35:43;98702.47;;;21.32;63.93
77235;BME280;66253;50.526;14.974;2023-07-13T00:38:11;98698.92;;;21.33;63.87
77235;BME280;66253;50.526;14.974;2023-07-13T00:40:40;98697.80;;;21.32;63.74
77235;BME280;66253;50.526;14.974;2023-07-13T00:43:13;98693.56;;;21.33;63.89
77235;BME280;66253;50.526;14.974;2023-07-13T00:46:20;98689.28;;;21.35;63.83
77235;BME280;66253;50.526;14.974;2023-07-13T00:48:49;98684.40;;;21.34;64.16
77235;BME280;66253;50.526;14.974;2023-07-13T00:51:20;98676.44;;;21.30;64.18
77235;BME280;66253;50.526;14.974;2023-07-13T00:53:51;98663.41;;;21.26;64.40
77235;BME280;66253;50.526;14.974;2023-07-13T00:56:21;98656.48;;;21.21;64.57
77235;BME280;66253;50.526;14.974;2023-07-13T00:58:49;98654.50;;;21.17;64.63
77235;BME280;66253;50.526;14.974;2023-07-13T01:01:17;98650.93;;;21.13;64.79
77235;BME280;66253;50.526;14.974;2023-07-13T01:03:46;98644.48;;;21.10;64.81
77235;BME280;66253;50.526;14.974;2023-07-13T01:06:14;98637.77;;;21.09;64.96
77235;BME280;66253;50.526;14.974;2023-07-13T01:08:43;98635.67;;;21.08;64.83
77235;BME280;66253;50.526;14.974;2023-07-13T01:11:11;98644.00;;;21.08;64.87
77235;BME280;66253;50.526;14.974;2023-07-13T01:13:39;98642.41;;;21.10;65.04
77235;BME280;66253;50.526;14.974;2023-07-13T01:16:26;98642.05;;;21.11;64.99
77235;BME280;66253;50.526;14.974;2023-07-13T01:18:55;98639.05;;;21.12;64.86
77235;BME280;66253;50.526;14.974;2023-07-13T01:21:24;98634.37;;;21.14;64.86
77235;BME280;66253;50.526;14.974;2023-07-13T01:23:52;98628.48;;;21.17;65.04
77235;BME280;66253;50.526;14.974;2023-07-13T01:26:21;98625.74;;;21.19;64.90
77235;BME280;66253;50.526;14.974;2023-07-13T01:28:49;98621.81;;;21.20;64.67
77235;BME280;66253;50.526;14.974;2023-07-13T01:31:17;98630.46;;;21.22;64.49
77235;BME280;66253;50.526;14.974;2023-07-13T01:33:45;98633.22;;;21.24;64.26
77235;BME280;66253;50.526;14.974;2023-07-13T01:36:14;98626.10;;;21.27;64.13
77235;BME280;66253;50.526;14.974;2023-07-13T01:38:42;98626.48;;;21.28;64.26
77235;BME280;66253;50.526;14.974;2023-07-13T01:41:10;98627.96;;;21.27;64.00
77235;BME280;66253;50.526;14.974;2023-07-13T01:43:38;98625.13;;;21.26;64.10
77235;BME280;66253;50.526;14.974;2023-07-13T01:46:07;98630.79;;;21.22;64.13
77235;BME280;66253;50.526;14.974;2023-07-13T01:48:35;98633.56;;;21.18;63.99
77235;BME280;66253;50.526;14.974;2023-07-13T01:51:03;98639.08;;;21.15;64.10
77235;BME280;66253;50.526;14.974;2023-07-13T01:53:31;98641.36;;;21.13;64.07
77235;BME280;66253;50.526;14.974;2023-07-13T01:56:00;98638.92;;;21.12;64.19
77235;BME280;66253;50.526;14.974;2023-07-13T01:58:28;98636.85;;;21.10;64.32
77235;BME280;66253;50.526;14.974;2023-07-13T02:00:57;98643.94;;;21.08;64.30
77235;BME280;66253;50.526;14.974;2023-07-13T02:03:25;98643.52;;;21.07;64.44
77235;BME280;66253;50.526;14.974;2023-07-13T02:05:53;98648.79;;;21.08;64.52
77235;BME280;66253;50.526;14.974;2023-07-13T02:08:21;98653.41;;;21.09;64.44
77235;BME280;66253;50.526;14.974;2023-07-13T02:10:49;98654.08;;;21.09;64.31
77235;BME280;66253;50.526;14.974;2023-07-13T02:13:18;98653.15;;;21.08;64.14
77235;BME280;66253;50.526;14.974;2023-07-13T02:15:46;98648.25;;;21.06;64.04
77235;BME280;66253;50.526;14.974;2023-07-13T02:18:17;98651.34;;;21.04;63.71
77235;BME280;66253;50.526;14.974;2023-07-13T02:20:46;98657.19;;;21.00;63.70
77235;BME280;66253;50.526;14.974;2023-07-13T02:23:14;98655.73;;;20.93;63.71
77235;BME280;66253;50.526;14.974;2023-07-13T02:25:42;98658.84;;;20.88;63.70
77235;BME280;66253;50.526;14.974;2023-07-13T02:28:10;98667.10;;;20.85;63.85
77235;BME280;66253;50.526;14.974;2023-07-13T02:30:39;98673.14;;;20.83;64.03
77235;BME280;66253;50.526;14.974;2023-07-13T02:33:07;98683.22;;;20.81;63.95
77235;BME280;66253;50.526;14.974;2023-07-13T02:35:35;98701.22;;;20.76;63.95
77235;BME280;66253;50.526;14.974;2023-07-13T02:38:03;98693.52;;;20.74;64.16
77235;BME280;66253;50.526;14.974;2023-07-13T02:40:32;98671.35;;;20.60;63.39
77235;BME280;66253;50.526;14.974;2023-07-13T02:43:00;98662.30;;;20.51;63.05
77235;BME280;66253;50.526;14.974;2023-07-13T02:45:29;98669.72;;;20.49;62.81
77235;BME280;66253;50.526;14.974;2023-07-13T02:48:06;98677.53;;;20.49;62.48
77235;BME280;66253;50.526;14.974;2023-07-13T02:50:35;98675.23;;;20.48;61.69
77235;BME280;66253;50.526;14.974;2023-07-13T02:53:03;98669.08;;;20.46;61.65
77235;BME280;66253;50.526;14.974;2023-07-13T02:55:31;98668.32;;;20.46;61.65
77235;BME280;66253;50.526;14.974;2023-07-13T02:57:59;98669.98;;;20.45;61.67
77235;BME280;66253;50.526;14.974;2023-07-13T03:00:27;98664.49;;;20.43;61.51
77235;BME280;66253;50.526;14.974;2023-07-13T03:02:57;98662.23;;;20.41;61.60
77235;BME280;66253;50.526;14.974;2023-07-13T03:05:25;98659.13;;;20.38;61.49
77235;BME280;66253;50.526;14.974;2023-07-13T03:07:53;98663.44;;;20.35;61.58
77235;BME280;66253;50.526;14.974;2023-07-13T03:10:22;98668.79;;;20.33;61.72
77235;BME280;66253;50.526;14.974;2023-07-13T03:12:50;98668.98;;;20.33;61.77
77235;BME280;66253;50.526;14.974;2023-07-13T03:15:19;98665.00;;;20.33;61.82
77235;BME280;66253;50.526;14.974;2023-07-13T03:17:47;98666.23;;;20.31;61.87
77235;BME280;66253;50.526;14.974;2023-07-13T03:20:15;98666.69;;;20.30;62.03
77235;BME280;66253;50.526;14.974;2023-07-13T03:22:44;98673.88;;;20.30;62.08
77235;BME280;66253;50.526;14.974;2023-07-13T03:25:12;98678.37;;;20.30;62.32
77235;BME280;66253;50.526;14.974;2023-07-13T03:27:41;98684.83;;;20.31;62.48
77235;BME280;66253;50.526;14.974;2023-07-13T03:30:11;98682.23;;;20.27;62.51
77235;BME280;66253;50.526;14.974;2023-07-13T03:32:39;98682.50;;;20.27;62.46
77235;BME280;66253;50.526;14.974;2023-07-13T03:35:10;98688.41;;;20.27;62.05
77235;BME280;66253;50.526;14.974;2023-07-13T03:37:38;98688.54;;;20.27;61.90
77235;BME280;66253;50.526;14.974;2023-07-13T03:40:08;98679.02;;;20.27;61.51
77235;BME280;66253;50.526;14.974;2023-07-13T03:42:36;98676.29;;;20.27;61.51
77235;BME280;66253;50.526;14.974;2023-07-13T03:45:06;98685.88;;;20.27;61.32
77235;BME280;66253;50.526;14.974;2023-07-13T03:47:35;98687.50;;;20.28;61.30
77235;BME280;66253;50.526;14.974;2023-07-13T03:50:04;98692.54;;;20.30;61.00
77235;BME280;66253;50.526;14.974;2023-07-13T03:52:33;98700.12;;;20.32;61.14
77235;BME280;66253;50.526;14.974;2023-07-13T03:55:01;98704.88;;;20.32;61.01
77235;BME280;66253;50.526;14.974;2023-07-13T03:57:30;98711.66;;;20.31;61.29
77235;BME280;66253;50.526;14.974;2023-07-13T03:59:58;98713.59;;;20.31;61.59
77235;BME280;66253;50.526;14.974;2023-07-13T04:02:26;98706.37;;;20.31;61.54
77235;BME280;66253;50.526;14.974;2023-07-13T04:04:55;98705.26;;;20.26;61.81
77235;BME280;66253;50.526;14.974;2023-07-13T04:07:23;98705.27;;;20.23;62.03
77235;BME280;66253;50.526;14.974;2023-07-13T04:09:51;98700.20;;;20.17;62.27
77235;BME280;66253;50.526;14.974;2023-07-13T04:12:20;98708.06;;;20.14;62.57
77235;BME280;66253;50.526;14.974;2023-07-13T04:14:48;98715.14;;;20.13;62.95
77235;BME280;66253;50.526;14.974;2023-07-13T04:17:16;98738.48;;;20.13;63.20
77235;BME280;66253;50.526;14.974;2023-07-13T04:19:44;98802.38;;;20.14;63.17
77235;BME280;66253;50.526;14.974;2023-07-13T04:22:13;98838.20;;;20.15;63.11
77235;BME280;66253;50.526;14.974;2023-07-13T04:24:41;98846.58;;;20.11;62.96
77235;BME280;66253;50.526;14.974;2023-07-13T04:27:09;98843.14;;;20.02;62.88
77235;BME280;66253;50.526;14.974;2023-07-13T04:29:37;98826.89;;;19.93;63.18
77235;BME280;66253;50.526;14.974;2023-07-13T04:32:07;98804.42;;;19.82;63.63
77235;BME280;66253;50.526;14.974;2023-07-13T04:34:35;98783.70;;;19.64;64.03
77235;BME280;66253;50.526;14.974;2023-07-13T04:37:03;98777.23;;;19.51;64.69
77235;BME280;66253;50.526;14.974;2023-07-13T04:39:32;98793.63;;;19.43;65.46
77235;BME280;66253;50.526;14.974;2023-07-13T04:42:00;98789.52;;;19.37;66.03
77235;BME280;66253;50.526;14.974;2023-07-13T04:44:28;98775.83;;;19.23;66.47
77235;BME280;66253;50.526;14.974;2023-07-13T04:46:57;98788.48;;;19.11;66.83
77235;BME280;66253;50.526;14.974;2023-07-13T04:49:25;98801.11;;;19.02;67.47
77235;BME280;66253;50.526;14.974;2023-07-13T04:51:53;98789.67;;;18.96;67.77
77235;BME280;66253;50.526;14.974;2023-07-13T04:54:21;98787.23;;;18.92;67.99
77235;BME280;66253;50.526;14.974;2023-07-13T04:56:50;98794.09;;;18.90;68.26
77235;BME280;66253;50.526;14.974;2023-07-13T04:59:18;98794.96;;;18.92;68.34
77235;BME280;66253;50.526;14.974;2023-07-13T05:01:46;98802.32;;;18.91;68.61
77235;BME280;66253;50.526;14.974;2023-07-13T05:04:14;98798.80;;;18.88;68.90
77235;BME280;66253;50.526;14.974;2023-07-13T05:06:43;98793.70;;;18.84;69.08
77235;BME280;66253;50.526;14.974;2023-07-13T05:09:11;98793.65;;;18.81;69.61
77235;BME280;66253;50.526;14.974;2023-07-13T05:11:39;98797.66;;;18.82;69.52
77235;BME280;66253;50.526;14.974;2023-07-13T05:14:07;98798.89;;;18.85;69.80
77235;BME280;66253;50.526;14.974;2023-07-13T05:16:36;98790.95;;;18.89;69.95
77235;BME280;66253;50.526;14.974;2023-07-13T05:19:04;98797.81;;;18.91;70.10
77235;BME280;66253;50.526;14.974;2023-07-13T05:21:32;98799.39;;;18.94;70.24
77235;BME280;66253;50.526;14.974;2023-07-13T05:24:01;98804.12;;;19.01;70.39
77235;BME280;66253;50.526;14.974;2023-07-13T05:26:29;98809.71;;;19.11;69.86
77235;BME280;66253;50.526;14.974;2023-07-13T05:28:57;98806.84;;;19.25;69.80
77235;BME280;66253;50.526;14.974;2023-07-13T05:31:26;98806.06;;;19.34;70.02
77235;BME280;66253;50.526;14.974;2023-07-13T05:33:54;98810.13;;;19.40;69.72
77235;BME280;66253;50.526;14.974;2023-07-13T05:36:22;98811.04;;;19.45;69.99
77235;BME280;66253;50.526;14.974;2023-07-13T05:38:51;98810.54;;;19.48;69.90
77235;BME280;66253;50.526;14.974;2023-07-13T05:41:19;98811.37;;;19.54;69.71
77235;BME280;66253;50.526;14.974;2023-07-13T05:43:47;98804.11;;;19.61;69.64
77235;BME280;66253;50.526;14.974;2023-07-13T05:46:15;98802.27;;;19.69;69.51
77235;BME280;66253;50.526;14.974;2023-07-13T05:48:44;98804.91;;;19.79;69.45
77235;BME280;66253;50.526;14.974;2023-07-13T05:51:12;98805.05;;;19.88;69.50
77235;BME280;66253;50.526;14.974;2023-07-13T05:53:40;98805.19;;;19.95;69.41
77235;BME280;66253;50.526;14.974;2023-07-13T05:56:09;98809.75;;;20.05;69.09
77235;BME280;66253;50.526;14.974;2023-07-13T05:58:37;98809.89;;;20.17;68.86
77235;BME280;66253;50.526;14.974;2023-07-13T06:01:08;98816.41;;;20.33;69.14
77235;BME280;66253;50.526;14.974;2023-07-13T06:03:37;98817.45;;;20.50;68.59
77235;BME280;66253;50.526;14.974;2023-07-13T06:06:06;98820.46;;;20.64;68.01
77235;BME280;66253;50.526;14.974;2023-07-13T06:08:33;98820.48;;;20.78;68.05
77235;BME280;66253;50.526;14.974;2023-07-13T06:11:06;98820.56;;;20.88;67.76
77235;BME280;66253;50.526;14.974;2023-07-13T06:13:35;98822.17;;;21.00;67.68
77235;BME280;66253;50.526;14.974;2023-07-13T06:16:07;98824.03;;;21.07;67.08
77235;BME280;66253;50.526;14.974;2023-07-13T06:18:36;98824.71;;;21.05;66.46
77235;BME280;66253;50.526;14.974;2023-07-13T06:21:09;98823.38;;;21.10;66.69
77235;BME280;66253;50.526;14.974;2023-07-13T06:23:38;98820.31;;;21.24;66.96
77235;BME280;66253;50.526;14.974;2023-07-13T06:26:07;98822.34;;;21.37;66.59
77235;BME280;66253;50.526;14.974;2023-07-13T06:28:36;98823.67;;;21.51;66.15
77235;BME280;66253;50.526;14.974;2023-07-13T06:31:06;98823.65;;;21.64;65.82
77235;BME280;66253;50.526;14.974;2023-07-13T06:33:35;98828.15;;;21.77;65.33
77235;BME280;66253;50.526;14.974;2023-07-13T06:36:04;98832.11;;;21.85;65.12
77235;BME280;66253;50.526;14.974;2023-07-13T06:38:33;98837.33;;;21.98;64.83
77235;BME280;66253;50.526;14.974;2023-07-13T06:41:02;98838.41;;;22.14;64.69
77235;BME280;66253;50.526;14.974;2023-07-13T06:43:30;98838.15;;;22.33;64.73
77235;BME280;66253;50.526;14.974;2023-07-13T06:46:11;98833.98;;;22.54;64.47
77235;BME280;66253;50.526;14.974;2023-07-13T06:48:39;98833.61;;;22.73;63.98
77235;BME280;66253;50.526;14.974;2023-07-13T06:51:08;98832.46;;;22.85;63.06
77235;BME280;66253;50.526;14.974;2023-07-13T06:53:36;98830.30;;;22.88;63.10
77235;BME280;66253;50.526;14.974;2023-07-13T06:56:05;98833.65;;;22.91;62.75
77235;BME280;66253;50.526;14.974;2023-07-13T06:58:35;98836.45;;;22.95;62.34
77235;BME280;66253;50.526;14.974;2023-07-13T07:01:03;98838.46;;;23.07;62.42
77235;BME280;66253;50.526;14.974;2023-07-13T07:03:32;98841.95;;;23.22;62.25
77235;BME280;66253;50.526;14.974;2023-07-13T07:06:06;98843.98;;;23.38;62.10
77235;BME280;66253;50.526;14.974;2023-07-13T07:08:39;98839.29;;;23.53;61.95
77235;BME280;66253;50.526;14.974;2023-07-13T07:11:11;98843.80;;;23.66;61.54
77235;BME280;66253;50.526;14.974;2023-07-13T07:13:39;98846.06;;;23.77;61.32
77235;BME280;66253;50.526;14.974;2023-07-13T07:16:08;98851.02;;;23.90;60.70
77235;BME280;66253;50.526;14.974;2023-07-13T07:18:36;98848.66;;;24.02;60.13
77235;BME280;66253;50.526;14.974;2023-07-13T07:21:05;98850.03;;;24.14;59.89
77235;BME280;66253;50.526;14.974;2023-07-13T07:23:33;98849.17;;;24.20;58.93
77235;BME280;66253;50.526;14.974;2023-07-13T07:26:02;98849.20;;;24.17;58.31
77235;BME280;66253;50.526;14.974;2023-07-13T07:28:30;98850.64;;;24.18;58.76
77235;BME280;66253;50.526;14.974;2023-07-13T07:30:59;98849.61;;;24.27;58.43
77235;BME280;66253;50.526;14.974;2023-07-13T07:33:27;98848.21;;;24.37;57.99
77235;BME280;66253;50.526;14.974;2023-07-13T07:35:55;98847.89;;;24.45;57.62
77235;BME280;66253;50.526;14.974;2023-07-13T07:38:24;98845.94;;;24.50;57.46
77235;BME280;66253;50.526;14.974;2023-07-13T07:40:52;98855.80;;;24.64;57.26
77235;BME280;66253;50.526;14.974;2023-07-13T07:43:21;98857.48;;;24.79;57.19
77235;BME280;66253;50.526;14.974;2023-07-13T07:45:49;98858.52;;;24.97;56.94
77235;BME280;66253;50.526;14.974;2023-07-13T07:48:17;98857.33;;;25.07;56.34
77235;BME280;66253;50.526;14.974;2023-07-13T07:50:45;98863.13;;;25.22;56.25
77235;BME280;66253;50.526;14.974;2023-07-13T07:53:14;98870.06;;;25.37;54.95
77235;BME280;66253;50.526;14.974;2023-07-13T07:55:42;98865.27;;;25.46;54.37
77235;BME280;66253;50.526;14.974;2023-07-13T07:58:10;98870.47;;;25.56;54.50
77235;BME280;66253;50.526;14.974;2023-07-13T08:00:38;98870.88;;;25.63;53.38
77235;BME280;66253;50.526;14.974;2023-07-13T08:03:07;98873.27;;;25.69;53.34
77235;BME280;66253;50.526;14.974;2023-07-13T08:05:37;98874.44;;;25.75;53.50
77235;BME280;66253;50.526;14.974;2023-07-13T08:08:05;98872.86;;;25.83;52.90
77235;BME280;66253;50.526;14.974;2023-07-13T08:10:36;98874.93;;;25.86;51.20
77235;BME280;66253;50.526;14.974;2023-07-13T08:13:04;98877.69;;;25.87;50.80
77235;BME280;66253;50.526;14.974;2023-07-13T08:15:32;98876.80;;;25.87;51.27
77235;BME280;66253;50.526;14.974;2023-07-13T08:18:01;98879.68;;;25.96;51.65
77235;BME280;66253;50.526;14.974;2023-07-13T08:20:29;98882.21;;;26.09;51.73
77235;BME280;66253;50.526;14.974;2023-07-13T08:22:57;98886.19;;;26.27;51.72
77235;BME280;66253;50.526;14.974;2023-07-13T08:25:25;98884.11;;;26.41;48.20
77235;BME280;66253;50.526;14.974;2023-07-13T08:27:54;98887.05;;;26.32;46.23
77235;BME280;66253;50.526;14.974;2023-07-13T08:30:22;98890.20;;;26.14;46.83
77235;BME280;66253;50.526;14.974;2023-07-13T08:32:50;98887.34;;;26.07;48.30
77235;BME280;66253;50.526;14.974;2023-07-13T08:35:19;98894.48;;;26.06;48.21
77235;BME280;66253;50.526;14.974;2023-07-13T08:37:47;98892.23;;;26.00;47.79
77235;BME280;66253;50.526;14.974;2023-07-13T08:40:25;98892.00;;;25.96;48.09
77235;BME280;66253;50.526;14.974;2023-07-13T08:42:55;98895.17;;;25.99;48.77
77235;BME280;66253;50.526;14.974;2023-07-13T08:45:30;98898.86;;;26.04;48.87
77235;BME280;66253;50.526;14.974;2023-07-13T08:48:03;98903.41;;;26.06;48.92
77235;BME280;66253;50.526;14.974;2023-07-13T08:50:38;98904.89;;;26.11;49.33
77235;BME280;66253;50.526;14.974;2023-07-13T08:53:12;98900.39;;;26.16;48.81
77235;BME280;66253;50.526;14.974;2023-07-13T08:55:42;98907.23;;;26.17;47.74
77235;BME280;66253;50.526;14.974;2023-07-13T08:58:13;98908.11;;;26.09;46.26
77235;BME280;66253;50.526;14.974;2023-07-13T09:00:46;98909.33;;;26.11;46.90
77235;BME280;66253;50.526;14.974;2023-07-13T09:03:22;98911.48;;;26.21;47.23
77235;BME280;66253;50.526;14.974;2023-07-13T09:05:54;98909.73;;;26.32;46.10
77235;BME280;66253;50.526;14.974;2023-07-13T09:08:36;98913.83;;;26.37;44.34
77235;BME280;66253;50.526;14.974;2023-07-13T09:11:14;98916.82;;;26.36;44.15
77235;BME280;66253;50.526;14.974;2023-07-13T09:13:54;98921.38;;;26.29;43.66
77235;BME280;66253;50.526;14.974;2023-07-13T09:16:26;98916.59;;;26.16;42.90
77235;BME280;66253;50.526;14.974;2023-07-13T09:18:59;98917.61;;;26.10;43.56
77235;BME280;66253;50.526;14.974;2023-07-13T09:21:32;98914.34;;;26.06;42.31
77235;BME280;66253;50.526;14.974;2023-07-13T09:24:06;98917.39;;;26.08;42.34
77235;BME280;66253;50.526;14.974;2023-07-13T09:26:46;98916.80;;;26.18;43.09
77235;BME280;66253;50.526;14.974;2023-07-13T09:29:16;98913.86;;;26.35;43.84
77235;BME280;66253;50.526;14.974;2023-07-13T09:31:54;98915.75;;;26.54;42.47
77235;BME280;66253;50.526;14.974;2023-07-13T09:34:23;98915.90;;;26.61;41.35
77235;BME280;66253;50.526;14.974;2023-07-13T09:36:52;98918.77;;;26.60;40.49
77235;BME280;66253;50.526;14.974;2023-07-13T09:39:27;98916.62;;;26.57;41.10
77235;BME280;66253;50.526;14.974;2023-07-13T09:42:00;98924.81;;;26.67;40.81
77235;BME280;66253;50.526;14.974;2023-07-13T09:44:31;98929.40;;;26.72;40.61
77235;BME280;66253;50.526;14.974;2023-07-13T09:47:02;98930.60;;;26.77;38.81
77235;BME280;66253;50.526;14.974;2023-07-13T09:49:29;98928.94;;;26.79;38.97
77235;BME280;66253;50.526;14.974;2023-07-13T09:52:02;98937.04;;;26.85;37.29
77235;BME280;66253;50.526;14.974;2023-07-13T09:54:34;98937.15;;;26.78;36.98
77235;BME280;66253;50.526;14.974;2023-07-13T09:57:11;98938.80;;;26.64;36.67
77235;BME280;66253;50.526;14.974;2023-07-13T09:59:43;98944.05;;;26.55;37.48
77235;BME280;66253;50.526;14.974;2023-07-13T10:02:26;98946.13;;;26.49;37.55
77235;BME280;66253;50.526;14.974;2023-07-13T10:04:59;98949.34;;;26.43;37.74
77235;BME280;66253;50.526;14.974;2023-07-13T10:07:29;98952.20;;;26.42;38.48
77235;BME280;66253;50.526;14.974;2023-07-13T10:09:55;98952.69;;;26.47;38.90
77235;BME280;66253;50.526;14.974;2023-07-13T10:12:25;98953.77;;;26.51;39.12
77235;BME280;66253;50.526;14.974;2023-07-13T10:14:56;98949.98;;;26.60;39.77
77235;BME280;66253;50.526;14.974;2023-07-13T10:17:29;98953.85;;;26.78;41.17
77235;BME280;66253;50.526;14.974;2023-07-13T10:20:00;98957.46;;;26.94;40.38
77235;BME280;66253;50.526;14.974;2023-07-13T10:22:39;98954.71;;;27.12;40.81
77235;BME280;66253;50.526;14.974;2023-07-13T10:25:20;98957.70;;;27.36;40.61
77235;BME280;66253;50.526;14.974;2023-07-13T10:27:49;98958.77;;;27.60;39.06
77235;BME280;66253;50.526;14.974;2023-07-13T10:30:21;98957.34;;;27.79;38.72
77235;BME280;66253;50.526;14.974;2023-07-13T10:32:51;98959.91;;;27.97;37.33
77235;BME280;66253;50.526;14.974;2023-07-13T10:35:21;98958.99;;;28.03;35.89
77235;BME280;66253;50.526;14.974;2023-07-13T10:37:52;98962.06;;;28.06;36.35
77235;BME280;66253;50.526;14.974;2023-07-13T10:40:25;98961.56;;;28.12;35.99
77235;BME280;66253;50.526;14.974;2023-07-13T10:42:58;98965.48;;;28.21;36.10
77235;BME280;66253;50.526;14.974;2023-07-13T10:45:36;98967.33;;;28.31;36.60
77235;BME280;66253;50.526;14.974;2023-07-13T10:48:06;98963.60;;;28.39;35.18
77235;BME280;66253;50.526;14.974;2023-07-13T10:50:41;98963.09;;;28.38;35.98
77235;BME280;66253;50.526;14.974;2023-07-13T10:53:21;98961.77;;;28.42;34.91
77235;BME280;66253;50.526;14.974;2023-07-13T10:56:00;98958.16;;;28.43;35.11
77235;BME280;66253;50.526;14.974;2023-07-13T10:58:35;98958.39;;;28.44;34.79
77235;BME280;66253;50.526;14.974;2023-07-13T11:01:10;98952.56;;;28.53;35.21
77235;BME280;66253;50.526;14.974;2023-07-13T11:03:46;98947.90;;;28.66;35.31
77235;BME280;66253;50.526;14.974;2023-07-13T11:06:18;98947.25;;;28.75;34.81
77235;BME280;66253;50.526;14.974;2023-07-13T11:08:59;98941.89;;;28.82;35.11
77235;BME280;66253;50.526;14.974;2023-07-13T11:11:37;98947.40;;;28.92;34.94
77235;BME280;66253;50.526;14.974;2023-07-13T11:14:14;98948.73;;;28.91;34.94
77235;BME280;66253;50.526;14.974;2023-07-13T11:16:53;98950.34;;;28.90;35.07
77235;BME280;66253;50.526;14.974;2023-07-13T11:19:44;98947.20;;;28.86;34.24
77235;BME280;66253;50.526;14.974;2023-07-13T11:22:24;98945.10;;;28.74;34.23
77235;BME280;66253;50.526;14.974;2023-07-13T11:24:58;98952.80;;;28.68;35.01
77235;BME280;66253;50.526;14.974;2023-07-13T11:27:40;98951.60;;;28.63;34.08
77235;BME280;66253;50.526;14.974;2023-07-13T11:30:32;98957.27;;;28.53;34.52
77235;BME280;66253;50.526;14.974;2023-07-13T11:33:13;98961.79;;;28.47;34.96
77235;BME280;66253;50.526;14.974;2023-07-13T11:35:46;98959.25;;;28.33;35.44
77235;BME280;66253;50.526;14.974;2023-07-13T11:38:20;98958.75;;;28.27;35.95
77235;BME280;66253;50.526;14.974;2023-07-13T11:40:51;98961.31;;;28.18;35.89
77235;BME280;66253;50.526;14.974;2023-07-13T11:43:21;98960.49;;;27.99;36.03
77235;BME280;66253;50.526;14.974;2023-07-13T11:45:49;98966.77;;;27.82;35.98
77235;BME280;66253;50.526;14.974;2023-07-13T11:48:26;98966.83;;;27.63;35.85
77235;BME280;66253;50.526;14.974;2023-07-13T11:50:58;98963.27;;;27.34;36.11
77235;BME280;66253;50.526;14.974;2023-07-13T11:53:30;98959.14;;;27.27;36.38
77235;BME280;66253;50.526;14.974;2023-07-13T11:56:04;98957.98;;;27.32;36.92
77235;BME280;66253;50.526;14.974;2023-07-13T11:58:33;98953.06;;;27.47;37.16
77235;BME280;66253;50.526;14.974;2023-07-13T12:01:00;98948.45;;;27.63;36.16
77235;BME280;66253;50.526;14.974;2023-07-13T12:03:29;98948.19;;;27.78;36.51
77235;BME280;66253;50.526;14.974;2023-07-13T12:06:00;98940.73;;;27.95;36.26
77235;BME280;66253;50.526;14.974;2023-07-13T12:08:29;98940.34;;;28.09;35.77
77235;BME280;66253;50.526;14.974;2023-07-13T12:11:10;98941.43;;;28.26;34.74
77235;BME280;66253;50.526;14.974;2023-07-13T12:13:43;98931.64;;;28.36;34.83
77235;BME280;66253;50.526;14.974;2023-07-13T12:16:25;98932.35;;;28.30;34.18
77235;BME280;66253;50.526;14.974;2023-07-13T12:18:55;98937.41;;;28.17;34.62
77235;BME280;66253;50.526;14.974;2023-07-13T12:21:29;98941.29;;;28.02;34.77
77235;BME280;66253;50.526;14.974;2023-07-13T12:23:58;98939.52;;;27.85;34.67
77235;BME280;66253;50.526;14.974;2023-07-13T12:26:26;98942.09;;;27.73;35.22
77235;BME280;66253;50.526;14.974;2023-07-13T12:28:55;98943.23;;;27.67;35.99
77235;BME280;66253;50.526;14.974;2023-07-13T12:31:33;98938.30;;;27.77;36.23
77235;BME280;66253;50.526;14.974;2023-07-13T12:34:03;98936.31;;;27.92;36.20
77235;BME280;66253;50.526;14.974;2023-07-13T12:36:36;98937.83;;;28.09;35.21
77235;BME280;66253;50.526;14.974;2023-07-13T12:39:14;98935.61;;;28.21;35.54
77235;BME280;66253;50.526;14.974;2023-07-13T12:41:43;98940.77;;;28.31;34.47
77235;BME280;66253;50.526;14.974;2023-07-13T12:44:17;98939.84;;;28.31;34.52
77235;BME280;66253;50.526;14.974;2023-07-13T12:46:58;98937.67;;;28.32;35.30
77235;BME280;66253;50.526;14.974;2023-07-13T12:49:29;98931.48;;;28.40;35.28
77235;BME280;66253;50.526;14.974;2023-07-13T12:52:01;98925.23;;;28.48;34.06
77235;BME280;66253;50.526;14.974;2023-07-13T12:54:30;98926.80;;;28.50;34.05
77235;BME280;66253;50.526;14.974;2023-07-13T12:56:59;98929.27;;;28.51;34.49
77235;BME280;66253;50.526;14.974;2023-07-13T12:59:31;98929.70;;;28.52;34.43
77235;BME280;66253;50.526;14.974;2023-07-13T13:02:00;98931.94;;;28.51;34.08
77235;BME280;66253;50.526;14.974;2023-07-13T13:04:28;98934.43;;;28.48;34.36
77235;BME280;66253;50.526;14.974;2023-07-13T13:07:07;98943.39;;;28.43;34.19